DLH504 EDDM-SBGR
Flight info
| Callsign | DLH504 |
|---|---|
| Flight time | N/A |
| Altitude | 33000 |
| Route | TULSI7S TULSI M736 OLPIX DCT BAPLU/N0489F350 DCT TORTU UN851 RAPUR DCT BUKID DCT REQIN UG26 ZEM/N0489F360 UG26 ALR UM986 TRB UA29 BRENA UA854 SEROR/N0493F380 UA854 ARDAR UR975 ANITI UA302 TURUP DCT KODOS/N0486F400 UL206 VRI UN401 SIDUR UZ10 EDMUS |
| Aircraft | A359/H-SDE2E3GHIJ3J4J5LM1ORWXY/LB1D1 |
Departure
| Time | N/A |
|---|---|
| Airport | Munich Airport (EDDM) |
Arrival
| Time | 2026-05-06 22:13 |
|---|---|
| Airport | São Paulo/Guarulhos–Governor André Franco Montoro International Airport (SBGR) |
| Time | Latitude | Longitude | Altitude | Speed | Heading |
|---|---|---|---|---|---|
| 2026-05-06 19:55 | -11.43599 | -36.99406 | 39004 ft | 402 kts | 218° |
| 2026-05-06 19:55 | -11.45938 | -37.00963 | 39019 ft | 400 kts | 218° |
| 2026-05-06 19:55 | -11.50586 | -37.04057 | 39018 ft | 398 kts | 218° |
| 2026-05-06 19:56 | -11.55189 | -37.07123 | 39018 ft | 398 kts | 218° |
| 2026-05-06 19:56 | -11.59822 | -37.10211 | 39018 ft | 398 kts | 218° |
| 2026-05-06 19:57 | -11.64451 | -37.13297 | 39017 ft | 397 kts | 218° |
| 2026-05-06 19:57 | -11.69088 | -37.16389 | 39017 ft | 397 kts | 218° |
| 2026-05-06 19:58 | -11.73707 | -37.19471 | 39023 ft | 397 kts | 218° |
| 2026-05-06 19:58 | -11.78333 | -37.22558 | 39019 ft | 397 kts | 218° |
| 2026-05-06 19:59 | -11.82920 | -37.25621 | 39025 ft | 395 kts | 217° |
| 2026-05-06 19:59 | -11.87511 | -37.28687 | 39024 ft | 394 kts | 217° |
| 2026-05-06 20:00 | -11.92098 | -37.31753 | 39028 ft | 394 kts | 217° |
| 2026-05-06 20:00 | -11.96673 | -37.34811 | 39032 ft | 393 kts | 217° |
| 2026-05-06 20:01 | -12.01257 | -37.37877 | 39028 ft | 394 kts | 217° |
| 2026-05-06 20:01 | -12.05838 | -37.40942 | 39029 ft | 394 kts | 217° |
| 2026-05-06 20:02 | -12.10421 | -37.44009 | 39031 ft | 394 kts | 217° |
| 2026-05-06 20:02 | -12.14973 | -37.47058 | 39031 ft | 394 kts | 217° |
| 2026-05-06 20:03 | -12.19545 | -37.50120 | 39032 ft | 392 kts | 217° |
| 2026-05-06 20:03 | -12.24105 | -37.53176 | 39032 ft | 391 kts | 217° |
| 2026-05-06 20:04 | -12.28656 | -37.56228 | 39033 ft | 391 kts | 217° |
| 2026-05-06 20:04 | -12.33204 | -37.59278 | 39033 ft | 391 kts | 217° |
| 2026-05-06 20:05 | -12.37748 | -37.62327 | 39034 ft | 391 kts | 217° |
| 2026-05-06 20:05 | -12.42293 | -37.65378 | 39034 ft | 391 kts | 217° |
| 2026-05-06 20:06 | -12.46837 | -37.68430 | 39033 ft | 390 kts | 217° |
| 2026-05-06 20:06 | -12.51350 | -37.71463 | 39042 ft | 391 kts | 217° |
| 2026-05-06 20:07 | -12.55898 | -37.74519 | 39039 ft | 390 kts | 216° |
| 2026-05-06 20:07 | -12.60426 | -37.77564 | 39040 ft | 389 kts | 217° |
| 2026-05-06 20:08 | -12.64951 | -37.80608 | 39040 ft | 389 kts | 217° |
| 2026-05-06 20:08 | -12.69480 | -37.83656 | 39039 ft | 389 kts | 217° |
| 2026-05-06 20:09 | -12.73999 | -37.86699 | 39042 ft | 389 kts | 217° |
| 2026-05-06 20:09 | -12.78538 | -37.89757 | 39045 ft | 390 kts | 216° |
| 2026-05-06 20:10 | -12.83054 | -37.92800 | 39042 ft | 391 kts | 216° |
| 2026-05-06 20:10 | -12.87602 | -37.95867 | 39038 ft | 391 kts | 216° |
| 2026-05-06 20:11 | -12.92127 | -37.98918 | 39039 ft | 388 kts | 216° |
| 2026-05-06 20:11 | -12.96631 | -38.01957 | 39040 ft | 387 kts | 216° |
| 2026-05-06 20:12 | -13.01130 | -38.04995 | 39052 ft | 387 kts | 216° |
| 2026-05-06 20:12 | -13.05606 | -38.08018 | 39038 ft | 388 kts | 216° |
| 2026-05-06 20:13 | -13.10124 | -38.11071 | 39040 ft | 389 kts | 216° |
| 2026-05-06 20:13 | -13.14645 | -38.14127 | 39041 ft | 389 kts | 216° |
| 2026-05-06 20:14 | -13.19158 | -38.17179 | 39044 ft | 389 kts | 216° |
| 2026-05-06 20:14 | -13.23675 | -38.20236 | 39045 ft | 388 kts | 215° |
| 2026-05-06 20:15 | -13.28143 | -38.23260 | 39059 ft | 387 kts | 215° |
| 2026-05-06 20:15 | -13.32645 | -38.26309 | 39050 ft | 388 kts | 215° |
| 2026-05-06 20:16 | -13.37152 | -38.29362 | 39054 ft | 388 kts | 215° |
| 2026-05-06 20:16 | -13.41667 | -38.32422 | 39053 ft | 388 kts | 215° |
| 2026-05-06 20:17 | -13.46179 | -38.35482 | 39052 ft | 388 kts | 215° |
| 2026-05-06 20:17 | -13.50690 | -38.38542 | 39053 ft | 388 kts | 215° |
| 2026-05-06 20:18 | -13.55203 | -38.41606 | 39057 ft | 389 kts | 214° |
| 2026-05-06 20:18 | -13.59690 | -38.44652 | 39054 ft | 388 kts | 214° |
| 2026-05-06 20:19 | -13.64187 | -38.47707 | 39059 ft | 387 kts | 214° |
| 2026-05-06 20:19 | -13.68678 | -38.50760 | 39059 ft | 387 kts | 214° |
| 2026-05-06 20:20 | -13.73165 | -38.53811 | 39061 ft | 387 kts | 214° |
| 2026-05-06 20:20 | -13.77652 | -38.56864 | 39069 ft | 387 kts | 214° |
| 2026-05-06 20:21 | -13.82138 | -38.59918 | 39061 ft | 389 kts | 214° |
| 2026-05-06 20:21 | -13.86653 | -38.62992 | 39061 ft | 389 kts | 214° |
| 2026-05-06 20:22 | -13.90406 | -38.65549 | 39062 ft | 389 kts | 214° |
| 2026-05-06 20:22 | -13.94915 | -38.68621 | 39062 ft | 387 kts | 214° |
| 2026-05-06 20:23 | -13.99390 | -38.71673 | 39065 ft | 386 kts | 214° |
| 2026-05-06 20:23 | -14.03968 | -38.74797 | 39061 ft | 404 kts | 214° |
| 2026-05-06 20:24 | -14.08770 | -38.78075 | 39060 ft | 424 kts | 214° |
| 2026-05-06 20:24 | -14.13796 | -38.81506 | 39064 ft | 442 kts | 214° |
| 2026-05-06 20:25 | -14.18987 | -38.85053 | 39062 ft | 458 kts | 214° |
| 2026-05-06 20:25 | -14.24369 | -38.88732 | 39066 ft | 467 kts | 214° |
| 2026-05-06 20:26 | -14.29788 | -38.92439 | 39074 ft | 468 kts | 214° |
| 2026-05-06 20:26 | -14.35220 | -38.96157 | 39072 ft | 468 kts | 214° |
| 2026-05-06 20:27 | -14.40660 | -38.99882 | 39075 ft | 468 kts | 214° |
| 2026-05-06 20:27 | -14.46090 | -39.03603 | 39078 ft | 469 kts | 214° |
| 2026-05-06 20:28 | -14.51522 | -39.07328 | 39089 ft | 469 kts | 214° |
| 2026-05-06 20:28 | -14.56928 | -39.11037 | 39068 ft | 470 kts | 214° |
| 2026-05-06 20:29 | -14.62365 | -39.14770 | 39081 ft | 467 kts | 213° |
| 2026-05-06 20:29 | -14.67762 | -39.18477 | 39081 ft | 465 kts | 213° |
| 2026-05-06 20:30 | -14.75845 | -39.24034 | 39084 ft | 465 kts | 213° |
| 2026-05-06 20:31 | -14.81228 | -39.27737 | 39084 ft | 465 kts | 213° |
| 2026-05-06 20:31 | -14.86622 | -39.31451 | 39088 ft | 465 kts | 213° |
| 2026-05-06 20:32 | -14.92014 | -39.35164 | 39086 ft | 466 kts | 213° |
| 2026-05-06 20:32 | -14.97400 | -39.38877 | 39089 ft | 464 kts | 213° |
| 2026-05-06 20:33 | -15.02769 | -39.42579 | 39090 ft | 464 kts | 213° |
| 2026-05-06 20:33 | -15.08109 | -39.46265 | 39089 ft | 464 kts | 213° |
| 2026-05-06 20:34 | -15.13487 | -39.49978 | 39094 ft | 465 kts | 213° |
| 2026-05-06 20:34 | -15.18867 | -39.53695 | 39099 ft | 465 kts | 213° |
| 2026-05-06 20:35 | -15.24251 | -39.57417 | 39099 ft | 465 kts | 213° |
| 2026-05-06 20:35 | -15.29628 | -39.61138 | 39103 ft | 464 kts | 213° |
| 2026-05-06 20:36 | -15.34996 | -39.64856 | 39105 ft | 464 kts | 213° |
| 2026-05-06 20:36 | -15.40364 | -39.68573 | 39099 ft | 463 kts | 213° |
| 2026-05-06 20:37 | -15.45723 | -39.72287 | 39106 ft | 463 kts | 213° |
| 2026-05-06 20:37 | -15.51060 | -39.75988 | 39104 ft | 464 kts | 213° |
| 2026-05-06 20:38 | -15.56430 | -39.79714 | 39110 ft | 465 kts | 213° |
| 2026-05-06 20:38 | -15.61794 | -39.83438 | 39107 ft | 462 kts | 213° |
| 2026-05-06 20:39 | -15.67126 | -39.87146 | 39110 ft | 461 kts | 213° |
| 2026-05-06 20:39 | -15.72459 | -39.90852 | 39110 ft | 461 kts | 213° |
| 2026-05-06 20:40 | -15.77798 | -39.94566 | 39106 ft | 463 kts | 213° |
| 2026-05-06 20:40 | -15.83117 | -39.98269 | 39106 ft | 463 kts | 213° |
| 2026-05-06 20:41 | -15.88466 | -40.01996 | 39106 ft | 463 kts | 213° |
| 2026-05-06 20:41 | -15.93809 | -40.05721 | 39105 ft | 461 kts | 213° |
| 2026-05-06 20:42 | -15.99132 | -40.09433 | 39113 ft | 461 kts | 213° |
| 2026-05-06 20:42 | -16.04451 | -40.13147 | 39113 ft | 461 kts | 213° |
| 2026-05-06 20:43 | -16.09780 | -40.16869 | 39114 ft | 461 kts | 213° |
| 2026-05-06 20:43 | -16.15105 | -40.20591 | 39119 ft | 461 kts | 213° |
| 2026-05-06 20:44 | -16.20437 | -40.24320 | 39126 ft | 461 kts | 213° |
| 2026-05-06 20:44 | -16.25751 | -40.28039 | 39118 ft | 459 kts | 213° |
| 2026-05-06 20:45 | -16.31006 | -40.31719 | 39124 ft | 458 kts | 213° |
| 2026-05-06 20:45 | -16.36295 | -40.35425 | 39123 ft | 458 kts | 213° |
| 2026-05-06 20:46 | -16.41582 | -40.39133 | 39134 ft | 458 kts | 213° |
| 2026-05-06 20:46 | -16.46868 | -40.42843 | 39131 ft | 458 kts | 213° |
| 2026-05-06 20:47 | -16.52153 | -40.46553 | 39134 ft | 458 kts | 213° |
| 2026-05-06 20:47 | -16.57398 | -40.50239 | 39132 ft | 457 kts | 213° |
| 2026-05-06 20:48 | -16.62664 | -40.53942 | 39140 ft | 456 kts | 213° |
| 2026-05-06 20:48 | -16.67919 | -40.57639 | 39138 ft | 455 kts | 213° |
| 2026-05-06 20:49 | -16.73172 | -40.61338 | 39135 ft | 456 kts | 213° |
| 2026-05-06 20:49 | -16.78433 | -40.65044 | 39138 ft | 456 kts | 213° |
| 2026-05-06 20:50 | -16.83688 | -40.68750 | 39138 ft | 456 kts | 213° |
| 2026-05-06 20:50 | -16.88946 | -40.72459 | 39134 ft | 455 kts | 213° |
| 2026-05-06 20:51 | -16.94186 | -40.76158 | 39136 ft | 454 kts | 213° |
| 2026-05-06 20:51 | -16.99387 | -40.79832 | 39138 ft | 454 kts | 213° |
| 2026-05-06 20:52 | -17.04624 | -40.83534 | 39139 ft | 454 kts | 213° |
| 2026-05-06 20:52 | -17.09857 | -40.87237 | 39140 ft | 454 kts | 213° |
| 2026-05-06 20:53 | -17.15093 | -40.90944 | 39138 ft | 454 kts | 213° |
| 2026-05-06 20:53 | -17.20323 | -40.94649 | 39140 ft | 453 kts | 213° |
| 2026-05-06 20:54 | -17.25546 | -40.98352 | 39141 ft | 453 kts | 212° |
| 2026-05-06 20:54 | -17.30762 | -41.02051 | 39143 ft | 453 kts | 213° |
| 2026-05-06 20:55 | -17.35972 | -41.05751 | 39144 ft | 452 kts | 212° |
| 2026-05-06 20:55 | -17.41182 | -41.09451 | 39139 ft | 452 kts | 212° |
| 2026-05-06 20:56 | -17.46382 | -41.13148 | 39137 ft | 452 kts | 212° |
| 2026-05-06 20:56 | -17.51551 | -41.16826 | 39141 ft | 452 kts | 212° |
| 2026-05-06 20:57 | -17.56751 | -41.20528 | 39145 ft | 452 kts | 212° |
| 2026-05-06 20:57 | -17.61947 | -41.24229 | 39141 ft | 452 kts | 212° |
| 2026-05-06 20:58 | -17.67146 | -41.27935 | 39140 ft | 451 kts | 212° |
| 2026-05-06 20:58 | -17.72342 | -41.31642 | 39141 ft | 451 kts | 212° |
| 2026-05-06 20:59 | -17.77533 | -41.35349 | 39142 ft | 451 kts | 212° |
| 2026-05-06 20:59 | -17.82678 | -41.39025 | 39146 ft | 449 kts | 212° |
| 2026-05-06 21:00 | -17.87838 | -41.42713 | 39148 ft | 448 kts | 212° |
| 2026-05-06 21:00 | -17.92992 | -41.46401 | 39153 ft | 448 kts | 212° |
| 2026-05-06 21:01 | -17.98140 | -41.50087 | 39155 ft | 448 kts | 212° |
| 2026-05-06 21:01 | -18.03301 | -41.53783 | 39141 ft | 449 kts | 212° |
| 2026-05-06 21:02 | -18.08469 | -41.57490 | 39135 ft | 449 kts | 212° |
| 2026-05-06 21:02 | -18.13635 | -41.61196 | 39144 ft | 448 kts | 212° |
| 2026-05-06 21:03 | -18.18784 | -41.64893 | 39139 ft | 448 kts | 212° |
| 2026-05-06 21:03 | -18.23931 | -41.68591 | 39143 ft | 448 kts | 212° |
| 2026-05-06 21:04 | -18.29053 | -41.72276 | 39140 ft | 449 kts | 212° |
| 2026-05-06 21:04 | -18.34215 | -41.75990 | 39142 ft | 449 kts | 212° |
| 2026-05-06 21:05 | -18.39368 | -41.79701 | 39137 ft | 448 kts | 212° |
| 2026-05-06 21:05 | -18.44512 | -41.83407 | 39140 ft | 448 kts | 212° |
| 2026-05-06 21:06 | -18.49655 | -41.87116 | 39137 ft | 448 kts | 212° |
| 2026-05-06 21:06 | -18.54801 | -41.90831 | 39140 ft | 448 kts | 212° |
| 2026-05-06 21:07 | -18.59948 | -41.94548 | 39139 ft | 448 kts | 212° |
| 2026-05-06 21:07 | -18.65094 | -41.98268 | 39137 ft | 449 kts | 213° |
| 2026-05-06 21:08 | -18.70245 | -42.01994 | 39139 ft | 448 kts | 212° |
| 2026-05-06 21:08 | -18.75356 | -42.05694 | 39138 ft | 448 kts | 212° |
| 2026-05-06 21:09 | -18.80492 | -42.09415 | 39140 ft | 448 kts | 212° |
| 2026-05-06 21:09 | -18.85632 | -42.13141 | 39141 ft | 448 kts | 212° |
| 2026-05-06 21:10 | -18.90776 | -42.16873 | 39137 ft | 448 kts | 212° |
| 2026-05-06 21:10 | -18.95052 | -42.19978 | 39132 ft | 448 kts | 212° |
| 2026-05-06 21:11 | -19.00171 | -42.23697 | 39135 ft | 446 kts | 212° |
| 2026-05-06 21:11 | -19.05281 | -42.27412 | 39140 ft | 445 kts | 212° |
| 2026-05-06 21:12 | -19.10382 | -42.31124 | 39134 ft | 446 kts | 212° |
| 2026-05-06 21:12 | -19.15489 | -42.34843 | 39135 ft | 446 kts | 212° |
| 2026-05-06 21:13 | -19.20596 | -42.38565 | 39135 ft | 445 kts | 212° |
| 2026-05-06 21:13 | -19.25701 | -42.42288 | 39126 ft | 445 kts | 212° |
| 2026-05-06 21:14 | -19.30782 | -42.45997 | 39131 ft | 443 kts | 212° |
| 2026-05-06 21:14 | -19.35852 | -42.49700 | 39127 ft | 443 kts | 212° |
| 2026-05-06 21:15 | -19.40925 | -42.53407 | 39132 ft | 442 kts | 212° |
| 2026-05-06 21:15 | -19.45966 | -42.57095 | 39130 ft | 442 kts | 212° |
| 2026-05-06 21:16 | -19.51034 | -42.60806 | 39132 ft | 443 kts | 212° |
| 2026-05-06 21:16 | -19.56099 | -42.64518 | 39129 ft | 442 kts | 212° |
| 2026-05-06 21:17 | -19.61152 | -42.68224 | 39138 ft | 441 kts | 212° |
| 2026-05-06 21:17 | -19.66200 | -42.71929 | 39142 ft | 440 kts | 212° |
| 2026-05-06 21:18 | -19.71242 | -42.75632 | 39142 ft | 441 kts | 212° |
| 2026-05-06 21:18 | -19.76253 | -42.79314 | 39144 ft | 441 kts | 212° |
| 2026-05-06 21:19 | -19.81305 | -42.83031 | 39130 ft | 440 kts | 212° |
| 2026-05-06 21:19 | -19.86330 | -42.86731 | 39146 ft | 439 kts | 212° |
| 2026-05-06 21:20 | -19.91347 | -42.90426 | 39145 ft | 439 kts | 212° |
| 2026-05-06 21:20 | -19.96372 | -42.94130 | 39142 ft | 439 kts | 212° |
| 2026-05-06 21:21 | -20.01387 | -42.97831 | 39145 ft | 438 kts | 212° |
| 2026-05-06 21:21 | -20.06400 | -43.01534 | 39142 ft | 439 kts | 212° |
| 2026-05-06 21:22 | -20.11418 | -43.05242 | 39152 ft | 438 kts | 212° |
| 2026-05-06 21:22 | -20.16421 | -43.08942 | 39151 ft | 438 kts | 212° |
| 2026-05-06 21:23 | -20.21388 | -43.12619 | 39143 ft | 437 kts | 212° |
| 2026-05-06 21:23 | -20.26392 | -43.16326 | 39142 ft | 437 kts | 212° |
| 2026-05-06 21:24 | -20.31388 | -43.20030 | 39153 ft | 437 kts | 212° |
| 2026-05-06 21:24 | -20.36382 | -43.23735 | 39163 ft | 437 kts | 212° |
| 2026-05-06 21:25 | -20.41375 | -43.27443 | 39161 ft | 438 kts | 212° |
| 2026-05-06 21:25 | -20.46365 | -43.31153 | 39163 ft | 437 kts | 212° |
| 2026-05-06 21:26 | -20.51356 | -43.34865 | 39168 ft | 437 kts | 212° |
| 2026-05-06 21:26 | -20.56349 | -43.38582 | 39172 ft | 437 kts | 212° |
| 2026-05-06 21:27 | -20.61341 | -43.42301 | 39175 ft | 438 kts | 213° |
| 2026-05-06 21:27 | -20.66296 | -43.45996 | 39177 ft | 436 kts | 212° |
| 2026-05-06 21:28 | -20.71276 | -43.49712 | 39179 ft | 436 kts | 212° |
| 2026-05-06 21:28 | -20.76246 | -43.53423 | 39186 ft | 436 kts | 212° |
| 2026-05-06 21:29 | -20.81209 | -43.57134 | 39184 ft | 435 kts | 212° |
| 2026-05-06 21:29 | -20.86185 | -43.60855 | 39187 ft | 435 kts | 212° |
| 2026-05-06 21:30 | -20.91108 | -43.64541 | 39185 ft | 434 kts | 212° |
| 2026-05-06 21:30 | -20.96051 | -43.68245 | 39198 ft | 433 kts | 212° |
| 2026-05-06 21:31 | -21.00989 | -43.71947 | 39198 ft | 433 kts | 212° |
| 2026-05-06 21:31 | -21.05924 | -43.75651 | 39200 ft | 433 kts | 212° |
| 2026-05-06 21:32 | -21.10852 | -43.79353 | 39285 ft | 433 kts | 213° |
| 2026-05-06 21:32 | -21.18245 | -43.84913 | 39307 ft | 432 kts | 213° |
| 2026-05-06 21:33 | -21.23155 | -43.88607 | 39307 ft | 431 kts | 213° |
| 2026-05-06 21:33 | -21.28021 | -43.92272 | 39301 ft | 431 kts | 213° |
| 2026-05-06 21:34 | -21.32921 | -43.95967 | 39272 ft | 430 kts | 213° |
| 2026-05-06 21:34 | -21.37820 | -43.99665 | 39250 ft | 430 kts | 213° |
| 2026-05-06 21:35 | -21.42719 | -44.03364 | 39216 ft | 430 kts | 213° |
| 2026-05-06 21:35 | -21.47606 | -44.07059 | 39199 ft | 429 kts | 213° |
| 2026-05-06 21:36 | -21.52482 | -44.10747 | 39191 ft | 429 kts | 213° |
| 2026-05-06 21:36 | -21.57359 | -44.14439 | 39198 ft | 428 kts | 213° |
| 2026-05-06 21:37 | -21.62199 | -44.18105 | 39204 ft | 428 kts | 213° |
| 2026-05-06 21:37 | -21.67068 | -44.21798 | 39204 ft | 428 kts | 213° |
| 2026-05-06 21:38 | -21.71934 | -44.25491 | 39198 ft | 428 kts | 213° |
| 2026-05-06 21:38 | -21.76795 | -44.29184 | 39201 ft | 427 kts | 213° |
| 2026-05-06 21:39 | -21.81655 | -44.32880 | 39218 ft | 427 kts | 213° |
| 2026-05-06 21:39 | -21.86507 | -44.36571 | 39206 ft | 426 kts | 213° |
| 2026-05-06 21:40 | -21.91357 | -44.40265 | 39206 ft | 426 kts | 213° |
| 2026-05-06 21:40 | -21.96199 | -44.43955 | 39208 ft | 426 kts | 213° |
| 2026-05-06 21:41 | -22.01008 | -44.47625 | 39219 ft | 426 kts | 213° |
| 2026-05-06 21:41 | -22.05850 | -44.51323 | 39205 ft | 426 kts | 213° |
| 2026-05-06 21:42 | -22.10702 | -44.55029 | 39206 ft | 427 kts | 213° |
| 2026-05-06 21:42 | -22.15535 | -44.58727 | 39223 ft | 426 kts | 213° |
| 2026-05-06 21:43 | -22.20367 | -44.62424 | 39199 ft | 426 kts | 213° |
| 2026-05-06 21:43 | -22.25215 | -44.66131 | 39201 ft | 426 kts | 213° |
| 2026-05-06 21:44 | -22.30041 | -44.69837 | 39192 ft | 426 kts | 213° |
| 2026-05-06 21:44 | -22.34840 | -44.73522 | 39206 ft | 426 kts | 213° |
| 2026-05-06 21:45 | -22.39675 | -44.77237 | 39208 ft | 426 kts | 213° |
| 2026-05-06 21:45 | -22.44500 | -44.80950 | 39178 ft | 425 kts | 213° |
| 2026-05-06 21:46 | -22.49332 | -44.84665 | 39187 ft | 426 kts | 214° |
| 2026-05-06 21:46 | -22.54161 | -44.88385 | 39185 ft | 426 kts | 214° |
| 2026-05-06 21:47 | -22.58981 | -44.92099 | 39185 ft | 425 kts | 214° |
| 2026-05-06 21:47 | -22.63793 | -44.95812 | 39168 ft | 421 kts | 214° |
| 2026-05-06 21:48 | -22.66119 | -44.97609 | 38663 ft | 413 kts | 213° |
| 2026-05-06 21:48 | -22.68503 | -44.99449 | 37381 ft | 420 kts | 213° |
| 2026-05-06 21:48 | -22.70884 | -45.01286 | 35929 ft | 431 kts | 213° |
| 2026-05-06 21:48 | -22.73357 | -45.03196 | 34538 ft | 441 kts | 213° |
| 2026-05-06 21:49 | -22.75880 | -45.05146 | 32960 ft | 451 kts | 214° |
| 2026-05-06 21:49 | -22.78473 | -45.07150 | 31198 ft | 463 kts | 214° |
| 2026-05-06 21:49 | -22.81138 | -45.09212 | 29278 ft | 478 kts | 215° |
| 2026-05-06 21:49 | -22.83857 | -45.11320 | 27898 ft | 481 kts | 215° |
| 2026-05-06 21:50 | -22.86566 | -45.13421 | 27125 ft | 472 kts | 215° |
| 2026-05-06 21:50 | -22.89214 | -45.15476 | 26300 ft | 465 kts | 215° |
| 2026-05-06 21:50 | -22.91835 | -45.17510 | 25427 ft | 461 kts | 215° |
| 2026-05-06 21:50 | -22.94437 | -45.19529 | 24500 ft | 458 kts | 215° |
| 2026-05-06 21:51 | -22.96983 | -45.21504 | 23639 ft | 454 kts | 215° |
| 2026-05-06 21:51 | -22.99545 | -45.23495 | 22641 ft | 451 kts | 215° |
| 2026-05-06 21:51 | -23.02081 | -45.25468 | 21729 ft | 446 kts | 214° |
| 2026-05-06 21:51 | -23.04591 | -45.27420 | 20843 ft | 441 kts | 214° |
| 2026-05-06 21:52 | -23.07070 | -45.29349 | 19957 ft | 436 kts | 214° |
| 2026-05-06 21:52 | -23.09525 | -45.31260 | 19079 ft | 432 kts | 214° |
| 2026-05-06 21:52 | -23.11969 | -45.33163 | 18175 ft | 429 kts | 214° |
| 2026-05-06 21:52 | -23.14377 | -45.35037 | 17232 ft | 424 kts | 214° |
| 2026-05-06 21:53 | -23.16723 | -45.36962 | 16309 ft | 422 kts | 220° |
| 2026-05-06 21:53 | -23.18618 | -45.39380 | 15635 ft | 422 kts | 237° |
| 2026-05-06 21:53 | -23.19753 | -45.42322 | 15272 ft | 424 kts | 253° |
| 2026-05-06 21:53 | -23.20476 | -45.45387 | 15186 ft | 424 kts | 256° |
| 2026-05-06 21:54 | -23.21155 | -45.48505 | 15175 ft | 424 kts | 256° |
| 2026-05-06 21:54 | -23.21832 | -45.51619 | 15171 ft | 423 kts | 256° |
| 2026-05-06 21:54 | -23.22514 | -45.54733 | 15175 ft | 423 kts | 256° |
| 2026-05-06 21:54 | -23.23233 | -45.57832 | 15174 ft | 423 kts | 253° |
| 2026-05-06 21:55 | -23.24085 | -45.60892 | 15179 ft | 423 kts | 252° |
| 2026-05-06 21:55 | -23.24958 | -45.63947 | 15171 ft | 423 kts | 252° |
| 2026-05-06 21:55 | -23.25822 | -45.67003 | 15179 ft | 423 kts | 252° |
| 2026-05-06 21:55 | -23.26681 | -45.70069 | 15182 ft | 423 kts | 252° |
| 2026-05-06 21:56 | -23.27533 | -45.73135 | 15183 ft | 423 kts | 252° |
| 2026-05-06 21:56 | -23.28380 | -45.76198 | 15184 ft | 423 kts | 252° |
| 2026-05-06 21:56 | -23.29227 | -45.79267 | 15181 ft | 423 kts | 252° |
| 2026-05-06 21:56 | -23.30072 | -45.82338 | 15184 ft | 424 kts | 252° |
| 2026-05-06 21:57 | -23.30918 | -45.85413 | 15187 ft | 424 kts | 252° |
| 2026-05-06 21:57 | -23.31761 | -45.88485 | 15187 ft | 424 kts | 252° |
| 2026-05-06 21:57 | -23.32606 | -45.91559 | 15183 ft | 424 kts | 252° |
| 2026-05-06 21:57 | -23.33471 | -45.94629 | 15166 ft | 424 kts | 252° |
| 2026-05-06 21:58 | -23.34320 | -45.97611 | 14939 ft | 411 kts | 252° |
| 2026-05-06 21:58 | -23.35158 | -46.00557 | 14124 ft | 406 kts | 252° |
| 2026-05-06 21:58 | -23.35997 | -46.03510 | 12967 ft | 410 kts | 252° |
| 2026-05-06 21:58 | -23.36830 | -46.06453 | 12293 ft | 400 kts | 253° |
| 2026-05-06 21:59 | -23.37630 | -46.09282 | 11968 ft | 381 kts | 253° |
| 2026-05-06 21:59 | -23.38148 | -46.11119 | 11783 ft | 369 kts | 253° |
| 2026-05-06 21:59 | -23.39114 | -46.14540 | 11469 ft | 346 kts | 253° |
| 2026-05-06 21:59 | -23.39575 | -46.16174 | 11306 ft | 336 kts | 253° |
| 2026-05-06 22:00 | -23.40251 | -46.18572 | 10897 ft | 328 kts | 254° |
| 2026-05-06 22:00 | -23.40913 | -46.20925 | 10408 ft | 323 kts | 254° |
| 2026-05-06 22:00 | -23.41563 | -46.23235 | 10073 ft | 314 kts | 254° |
| 2026-05-06 22:00 | -23.42190 | -46.25463 | 9838 ft | 301 kts | 254° |
| 2026-05-06 22:01 | -23.42782 | -46.27620 | 9396 ft | 295 kts | 256° |
| 2026-05-06 22:01 | -23.43054 | -46.29796 | 8913 ft | 292 kts | 272° |
| 2026-05-06 22:01 | -23.42644 | -46.31950 | 8410 ft | 288 kts | 294° |
| 2026-05-06 22:01 | -23.41674 | -46.33838 | 8116 ft | 286 kts | 304° |
| 2026-05-06 22:02 | -23.40575 | -46.35642 | 7868 ft | 285 kts | 305° |
| 2026-05-06 22:02 | -23.39473 | -46.37437 | 7639 ft | 284 kts | 305° |
| 2026-05-06 22:02 | -23.38380 | -46.39227 | 7403 ft | 283 kts | 305° |
| 2026-05-06 22:02 | -23.37294 | -46.41015 | 7170 ft | 283 kts | 305° |
| 2026-05-06 22:03 | -23.36208 | -46.42806 | 6934 ft | 283 kts | 305° |
| 2026-05-06 22:03 | -23.35128 | -46.44593 | 6703 ft | 283 kts | 305° |
| 2026-05-06 22:03 | -23.34046 | -46.46378 | 6465 ft | 282 kts | 305° |
| 2026-05-06 22:03 | -23.32967 | -46.48162 | 6211 ft | 282 kts | 305° |
| 2026-05-06 22:04 | -23.31889 | -46.49943 | 5957 ft | 282 kts | 304° |
| 2026-05-06 22:04 | -23.30814 | -46.51720 | 5714 ft | 281 kts | 305° |
| 2026-05-06 22:04 | -23.30017 | -46.53640 | 5472 ft | 276 kts | 283° |
| 2026-05-06 22:04 | -23.30014 | -46.55674 | 5303 ft | 264 kts | 260° |
| 2026-05-06 22:05 | -23.30380 | -46.57585 | 5663 ft | 252 kts | 257° |
| 2026-05-06 22:05 | -23.30768 | -46.59358 | 5937 ft | 233 kts | 256° |
| 2026-05-06 22:05 | -23.31141 | -46.61024 | 5986 ft | 228 kts | 256° |
| 2026-05-06 22:05 | -23.31519 | -46.62702 | 5983 ft | 228 kts | 256° |
| 2026-05-06 22:06 | -23.31898 | -46.64385 | 5961 ft | 229 kts | 256° |
| 2026-05-06 22:06 | -23.32277 | -46.66066 | 5959 ft | 229 kts | 256° |
| 2026-05-06 22:06 | -23.32659 | -46.67748 | 5955 ft | 229 kts | 256° |
| 2026-05-06 22:06 | -23.33361 | -46.69282 | 5954 ft | 229 kts | 227° |
| 2026-05-06 22:07 | -23.34671 | -46.70205 | 5965 ft | 225 kts | 197° |
| 2026-05-06 22:07 | -23.36188 | -46.70612 | 5961 ft | 225 kts | 188° |
| 2026-05-06 22:07 | -23.37723 | -46.70739 | 5956 ft | 224 kts | 173° |
| 2026-05-06 22:07 | -23.39280 | -46.70513 | 5961 ft | 223 kts | 169° |
| 2026-05-06 22:08 | -23.40795 | -46.70230 | 5969 ft | 224 kts | 168° |
| 2026-05-06 22:08 | -23.42327 | -46.69929 | 5968 ft | 223 kts | 167° |
| 2026-05-06 22:08 | -23.43855 | -46.69639 | 5955 ft | 223 kts | 168° |
| 2026-05-06 22:08 | -23.45389 | -46.69360 | 5973 ft | 224 kts | 167° |
| 2026-05-06 22:09 | -23.46913 | -46.69021 | 5735 ft | 222 kts | 157° |
| 2026-05-06 22:09 | -23.48021 | -46.67964 | 5448 ft | 212 kts | 112° |
| 2026-05-06 22:09 | -23.48306 | -46.66407 | 5108 ft | 210 kts | 88° |
| 2026-05-06 22:09 | -23.48173 | -46.64836 | 4965 ft | 208 kts | 73° |
| 2026-05-06 22:10 | -23.47755 | -46.63363 | 4961 ft | 196 kts | 71° |
| 2026-05-06 22:10 | -23.47432 | -46.61987 | 4962 ft | 179 kts | 74° |
| 2026-05-06 22:10 | -23.47098 | -46.60699 | 4734 ft | 178 kts | 71° |
| 2026-05-06 22:10 | -23.46739 | -46.59401 | 4441 ft | 176 kts | 73° |
| 2026-05-06 22:11 | -23.46413 | -46.58172 | 4196 ft | 161 kts | 73° |
| 2026-05-06 22:11 | -23.46117 | -46.57055 | 4008 ft | 148 kts | 73° |
| 2026-05-06 22:11 | -23.45832 | -46.55994 | 3800 ft | 143 kts | 73° |
| 2026-05-06 22:11 | -23.45555 | -46.54957 | 3661 ft | 143 kts | 75° |
| 2026-05-06 22:12 | -23.45279 | -46.53923 | 3476 ft | 145 kts | 75° |
| 2026-05-06 22:12 | -23.44999 | -46.52880 | 3301 ft | 144 kts | 75° |
| 2026-05-06 22:12 | -23.44711 | -46.51805 | 3106 ft | 146 kts | 74° |
| 2026-05-06 22:12 | -23.44421 | -46.50737 | 2902 ft | 150 kts | 74° |
| 2026-05-06 22:13 | -23.44123 | -46.49657 | 2682 ft | 147 kts | 77° |
| 2026-05-06 22:13 | -23.43849 | -46.48624 | 2516 ft | 138 kts | 74° |
| 2026-05-06 22:13 | -23.43591 | -46.47633 | 2480 ft | 125 kts | 74° |
| 2026-05-06 22:13 | -23.43416 | -46.46994 | 2478 ft | 46 kts | 73° |
| 2026-05-06 22:14 | -23.43345 | -46.46720 | 2477 ft | 37 kts | 72° |
| 2026-05-06 22:14 | -23.43274 | -46.46477 | 2477 ft | 31 kts | 65° |
| 2026-05-06 22:14 | -23.43156 | -46.46303 | 2477 ft | 22 kts | 50° |
| 2026-05-06 22:14 | -23.43094 | -46.46236 | 2476 ft | 0 kts | 44° |
| 2026-05-06 22:15 | -23.43070 | -46.46211 | 2476 ft | 11 kts | 44° |
| 2026-05-06 22:16 | -23.42998 | -46.46146 | 2476 ft | 15 kts | 22° |
| 2026-05-06 22:16 | -23.42883 | -46.46157 | 2477 ft | 19 kts | 344° |
| 2026-05-06 22:16 | -23.42747 | -46.46204 | 2478 ft | 23 kts | 342° |
| 2026-05-06 22:16 | -23.42634 | -46.46247 | 2477 ft | 12 kts | 323° |
| 2026-05-06 22:17 | -23.42628 | -46.46332 | 2477 ft | 14 kts | 254° |
| 2026-05-06 22:17 | -23.42668 | -46.46481 | 2477 ft | 26 kts | 253° |
| 2026-05-06 22:17 | -23.42722 | -46.46674 | 2478 ft | 29 kts | 253° |
| 2026-05-06 22:17 | -23.42782 | -46.46893 | 2478 ft | 32 kts | 253° |
| 2026-05-06 22:18 | -23.42827 | -46.47062 | 2478 ft | 10 kts | 254° |
| 2026-05-06 22:18 | -23.42793 | -46.47133 | 2478 ft | 14 kts | 339° |
| 2026-05-06 22:18 | -23.42682 | -46.47169 | 2478 ft | 19 kts | 343° |
| 2026-05-06 22:18 | -23.42578 | -46.47206 | 2478 ft | 8 kts | 330° |
| 2026-05-06 22:19 | -23.42568 | -46.47258 | 2478 ft | 8 kts | 255° |
| 2026-05-06 22:19 | -23.42579 | -46.47289 | 2478 ft | 4 kts | 250° |
| 2026-05-06 22:19 | -23.42581 | -46.47297 | 2478 ft | 0 kts | 250° |